Time;durP1;ratioP1;P1;durP2;ratioP2;P2;SDS_P1;SDS_P2;PMS_P1;PMS_P2;Temp;Humidity;BMP_temperature;BMP_pressure;BME280_temperature;BME280_humidity;BME280_pressure;Samples;Min_cycle;Max_cycle;Signal;HPM_P1;HPM_P2
2022/04/08 00:00:58;;;;;;;;;;;;;;;;;;2198285;59;1174;-70
2022/04/08 00:03:31;;;;;;;;;;;;;;;;;;2198535;59;1844;-70
2022/04/08 00:06:04;;;;;;;;;;;;;;;;;;2196807;67;1208;-70
2022/04/08 00:08:38;;;;;;;;;;;;;;;;;;2198464;67;1207;-70
2022/04/08 00:11:14;;;;;;;;;;;;;;;;;;2198492;59;1176;-70
2022/04/08 00:13:56;;;;;;;;;;;;;;;;;;2196839;59;1250;-70
2022/04/08 00:16:29;;;;;;;;;;;;;;;;;;2197973;59;1356;-70
2022/04/08 00:19:02;;;;;;;;;;;;;;;;;;2198459;58;1903;-70
2022/04/08 00:21:38;;;;;;;;;;;;;;;;;;2197308;67;1286;-70
2022/04/08 00:24:11;;;;;;;;;;;;;;;;;;2204202;59;2137;-69
2022/04/08 00:26:48;;;;;;;;;;;;;;;;;;2197717;59;1307;-70
2022/04/08 00:29:21;;;;;;;;;;;;;;;;;;2198691;59;1295;-70
2022/04/08 00:31:57;;;;;;;;;;;;;;;;;;2197540;59;1991;-70
2022/04/08 00:34:31;;;;;;;;;;;;;;;;;;2200808;67;1180;-70
2022/04/08 00:37:04;;;;;;;;;;;;;;;;;;2198764;59;1747;-70
2022/04/08 00:39:37;;;;;;;;;;;;;;;;;;2198201;59;1116;-70
2022/04/08 00:44:52;;;;;;;;;;;;;;;;;;2200273;58;1558;-69
2022/04/08 00:47:25;;;;;;;;;;;;;;;;;;2204223;59;1116;-69
2022/04/08 00:49:58;;;;;;;;;;;;;;;;;;2208589;59;1198;-69
2022/04/08 00:52:32;;;;;;;;;;;;;;;;;;2204571;59;1980;-69
2022/04/08 00:55:06;;;;;;;;;;;;;;;;;;2205820;67;1247;-69
2022/04/08 00:57:39;;;;;;;;;;;;;;;;;;2205456;59;1207;-69
2022/04/08 01:00:15;;;;;;;;;;;;;;;;;;2206429;59;1189;-68
2022/04/08 01:02:48;;;;;;;;;;;;;;;;;;2204852;59;1865;-69
2022/04/08 01:05:21;;;;;;;;;;;;;;;;;;2205139;67;1165;-70
2022/04/08 01:07:55;;;;;;;;;;;;;;;;;;2205475;67;1129;-69
2022/04/08 01:10:28;;;;;;;;;;;;;;;;;;2205227;67;1217;-69
2022/04/08 01:13:01;;;;;;;;;;;;;;;;;;2204490;59;1928;-69
2022/04/08 01:15:37;;;;;;;;;;;;;;;;;;2204341;67;1283;-69
2022/04/08 01:18:10;;;;;;;;;;;;;;;;;;2205511;59;1614;-70
2022/04/08 01:20:43;;;;;;;;;;;;;;;;;;2205363;59;2049;-69
2022/04/08 01:23:18;;;;;;;;;;;;;;;;;;2205649;59;1592;-70
2022/04/08 01:25:54;;;;;;;;;;;;;;;;;;2204336;59;1222;-69
2022/04/08 01:28:28;;;;;;;;;;;;;;;;;;2206603;59;2061;-69
2022/04/08 01:31:01;;;;;;;;;;;;;;;;;;2205846;58;1194;-70
2022/04/08 01:33:34;;;;;;;;;;;;;;;;;;2204416;59;1923;-69
2022/04/08 01:36:07;;;;;;;;;;;;;;;;;;2205268;66;1178;-70
2022/04/08 01:38:40;;;;;;;;;;;;;;;;;;2205637;66;1171;-69
2022/04/08 01:41:16;;;;;;;;;;;;;;;;;;2204672;59;1537;-69
2022/04/08 01:43:49;;;;;;;;;;;;;;;;;;2204768;59;1642;-69
2022/04/08 01:46:22;;;;;;;;;;;;;;;;;;2205486;66;1246;-70
2022/04/08 01:48:56;;;;;;;;;;;;;;;;;;2208478;59;1269;-70
2022/04/08 01:51:29;;;;;;;;;;;;;;;;;;2205211;67;1198;-69
2022/04/08 01:54:02;;;;;;;;;;;;;;;;;;2205251;58;1975;-69
2022/04/08 01:56:37;;;;;;;;;;;;;;;;;;2205128;59;1231;-70
2022/04/08 01:59:11;;;;;;;;;;;;;;;;;;2201553;67;1437;-69
2022/04/08 02:01:44;;;;;;;;;;;;;;;;;;2205341;67;1085;-69
2022/04/08 02:04:17;;;;;;;;;;;;;;;;;;2205256;59;1708;-69
2022/04/08 02:06:50;;;;;;;;;;;;;;;;;;2205226;67;1128;-70
2022/04/08 02:09:23;;;;;;;;;;;;;;;;;;2205096;59;1277;-68
2022/04/08 02:11:59;;;;;;;;;;;;;;;;;;2204764;58;1312;-69
2022/04/08 02:14:32;;;;;;;;;;;;;;;;;;2206111;58;1737;-69
2022/04/08 02:17:05;;;;;;;;;;;;;;;;;;2208058;66;1189;-69
2022/04/08 02:19:39;;;;;;;;;;;;;;;;;;2205370;59;1945;-70
2022/04/08 02:22:12;;;;;;;;;;;;;;;;;;2204826;59;1541;-70
2022/04/08 02:24:46;;;;;;;;;;;;;;;;;;2204025;59;2056;-69
2022/04/08 02:27:23;;;;;;;;;;;;;;;;;;2204492;58;1533;-69
2022/04/08 02:29:56;;;;;;;;;;;;;;;;;;2205065;59;1355;-70
2022/04/08 02:32:29;;;;;;;;;;;;;;;;;;2204870;66;1932;-69
2022/04/08 02:35:02;;;;;;;;;;;;;;;;;;2205108;67;1172;-71
2022/04/08 02:37:35;;;;;;;;;;;;;;;;;;2204866;59;1100;-69
2022/04/08 02:40:09;;;;;;;;;;;;;;;;;;2204097;59;1287;-69
2022/04/08 02:42:45;;;;;;;;;;;;;;;;;;2205309;59;1792;-70
2022/04/08 02:45:18;;;;;;;;;;;;;;;;;;2206897;59;1217;-69
2022/04/08 02:47:51;;;;;;;;;;;;;;;;;;2209859;60;1281;-70
2022/04/08 02:50:24;;;;;;;;;;;;;;;;;;2205555;59;1315;-69
2022/04/08 02:52:57;;;;;;;;;;;;;;;;;;2204653;66;2031;-69
2022/04/08 02:55:30;;;;;;;;;;;;;;;;;;2204625;59;1309;-69
2022/04/08 02:58:06;;;;;;;;;;;;;;;;;;2205423;66;1077;-69
2022/04/08 03:00:40;;;;;;;;;;;;;;;;;;2205427;67;1192;-69
2022/04/08 03:03:13;;;;;;;;;;;;;;;;;;2204240;59;1720;-70
2022/04/08 03:05:46;;;;;;;;;;;;;;;;;;2204366;59;1137;-69
2022/04/08 03:08:19;;;;;;;;;;;;;;;;;;2205168;59;1321;-69
2022/04/08 03:10:52;;;;;;;;;;;;;;;;;;2204814;59;1112;-69
2022/04/08 03:13:28;;;;;;;;;;;;;;;;;;2203676;59;1939;-69
2022/04/08 03:16:01;;;;;;;;;;;;;;;;;;2204700;67;1195;-69
2022/04/08 03:18:35;;;;;;;;;;;;;;;;;;2204925;67;1188;-69
2022/04/08 03:21:08;;;;;;;;;;;;;;;;;;2204842;59;2327;-69
2022/04/08 03:23:41;;;;;;;;;;;;;;;;;;2204137;58;1698;-69
2022/04/08 03:26:14;;;;;;;;;;;;;;;;;;2204950;67;1170;-69
2022/04/08 03:28:50;;;;;;;;;;;;;;;;;;2207174;59;1296;-69
2022/04/08 03:31:23;;;;;;;;;;;;;;;;;;2208758;58;1557;-69
2022/04/08 03:33:56;;;;;;;;;;;;;;;;;;2208635;58;1933;-69
2022/04/08 03:36:29;;;;;;;;;;;;;;;;;;2207221;59;1130;-69
2022/04/08 03:39:02;;;;;;;;;;;;;;;;;;2207359;67;1141;-69
2022/04/08 03:41:36;;;;;;;;;;;;;;;;;;2206847;67;1136;-69
2022/04/08 03:44:12;;;;;;;;;;;;;;;;;;2206250;59;1796;-69
2022/04/08 03:46:46;;;;;;;;;;;;;;;;;;2210871;66;1133;-69
2022/04/08 03:49:21;;;;;;;;;;;;;;;;;;2208876;59;1272;-69
2022/04/08 03:51:54;;;;;;;;;;;;;;;;;;2205546;59;1234;-69
2022/04/08 03:54:27;;;;;;;;;;;;;;;;;;2204863;67;1929;-69
2022/04/08 03:57:00;;;;;;;;;;;;;;;;;;2205514;67;1238;-69
2022/04/08 03:59:37;;;;;;;;;;;;;;;;;;2205077;67;1270;-69
2022/04/08 04:02:10;;;;;;;;;;;;;;;;;;2205288;59;1281;-69
2022/04/08 04:04:43;;;;;;;;;;;;;;;;;;2205155;59;1947;-69
2022/04/08 04:07:17;;;;;;;;;;;;;;;;;;2204367;67;1285;-69
2022/04/08 04:09:50;;;;;;;;;;;;;;;;;;2204692;67;1260;-69
2022/04/08 04:12:23;;;;;;;;;;;;;;;;;;2205035;59;1619;-69
2022/04/08 04:14:59;;;;;;;;;;;;;;;;;;2204378;67;1932;-69
2022/04/08 04:17:32;;;;;;;;;;;;;;;;;;2205904;59;1217;-69
2022/04/08 04:20:05;;;;;;;;;;;;;;;;;;2205523;58;1958;-69
2022/04/08 04:22:38;;;;;;;;;;;;;;;;;;2205448;59;1726;-69
2022/04/08 04:25:11;;;;;;;;;;;;;;;;;;2205108;67;1243;-70
2022/04/08 04:27:44;;;;;;;;;;;;;;;;;;2205253;66;1278;-69
2022/04/08 04:30:20;;;;;;;;;;;;;;;;;;2205502;58;1747;-69
2022/04/08 04:32:55;;;;;;;;;;;;;;;;;;2204218;67;1934;-69
2022/04/08 04:35:28;;;;;;;;;;;;;;;;;;2205625;59;1221;-69
2022/04/08 04:38:01;;;;;;;;;;;;;;;;;;2205295;67;1124;-69
2022/04/08 04:40:34;;;;;;;;;;;;;;;;;;2205755;67;1169;-69
2022/04/08 04:43:07;;;;;;;;;;;;;;;;;;2205545;59;1831;-69
2022/04/08 04:45:43;;;;;;;;;;;;;;;;;;2205034;59;1223;-69
2022/04/08 04:48:18;;;;;;;;;;;;;;;;;;2207101;59;1280;-69
2022/04/08 04:50:51;;;;;;;;;;;;;;;;;;2204986;59;1271;-68
2022/04/08 04:53:24;;;;;;;;;;;;;;;;;;2205433;67;1976;-69
2022/04/08 04:55:57;;;;;;;;;;;;;;;;;;2204909;59;1114;-69
2022/04/08 04:58:30;;;;;;;;;;;;;;;;;;2205204;59;1307;-69
2022/04/08 05:01:06;;;;;;;;;;;;;;;;;;2205026;59;1239;-68
2022/04/08 05:03:39;;;;;;;;;;;;;;;;;;2204676;59;1784;-69
2022/04/08 05:06:13;;;;;;;;;;;;;;;;;;2204339;59;1206;-69
2022/04/08 05:08:46;;;;;;;;;;;;;;;;;;2205129;67;1139;-69
2022/04/08 05:11:19;;;;;;;;;;;;;;;;;;2204949;58;1699;-69
2022/04/08 05:13:52;;;;;;;;;;;;;;;;;;2205418;59;1944;-69
2022/04/08 05:16:28;;;;;;;;;;;;;;;;;;2205888;58;1248;-69
2022/04/08 05:19:01;;;;;;;;;;;;;;;;;;2206781;59;1929;-69
2022/04/08 05:21:34;;;;;;;;;;;;;;;;;;2204312;67;1184;-69
2022/04/08 05:24:07;;;;;;;;;;;;;;;;;;2204845;59;1813;-69
2022/04/08 05:26:41;;;;;;;;;;;;;;;;;;2201174;67;1294;-69
2022/04/08 05:29:14;;;;;;;;;;;;;;;;;;2204634;58;1582;-69
2022/04/08 05:31:50;;;;;;;;;;;;;;;;;;2204934;67;1166;-69
2022/04/08 05:34:23;;;;;;;;;;;;;;;;;;2206852;59;1940;-70
2022/04/08 05:36:56;;;;;;;;;;;;;;;;;;2208360;59;1229;-69
2022/04/08 05:39:29;;;;;;;;;;;;;;;;;;2204728;67;1221;-69
2022/04/08 05:42:02;;;;;;;;;;;;;;;;;;2205983;66;1216;-69
2022/04/08 05:44:35;;;;;;;;;;;;;;;;;;2205025;59;1977;-69
2022/04/08 05:47:11;;;;;;;;;;;;;;;;;;2207528;59;1289;-69
2022/04/08 05:49:44;;;;;;;;;;;;;;;;;;2207133;66;1110;-69
2022/04/08 05:52:17;;;;;;;;;;;;;;;;;;2205451;59;1463;-69
2022/04/08 05:54:50;;;;;;;;;;;;;;;;;;2205350;59;1925;-69
2022/04/08 05:57:23;;;;;;;;;;;;;;;;;;2205327;67;1187;-69
2022/04/08 06:00:01;;;;;;;;;;;;;;;;;;2204942;58;1558;-69
2022/04/08 06:02:36;;;;;;;;;;;;;;;;;;2204656;59;1919;-69
2022/04/08 06:05:10;;;;;;;;;;;;;;;;;;2207871;59;1611;-69
2022/04/08 06:07:46;;;;;;;;;;;;;;;;;;2204448;59;1269;-69
2022/04/08 06:10:22;;;;;;;;;;;;;;;;;;2204922;59;1689;-69
2022/04/08 06:12:56;;;;;;;;;;;;;;;;;;2208790;59;1529;-69
2022/04/08 06:15:29;;;;;;;;;;;;;;;;;;2207823;67;1994;-70
2022/04/08 06:18:05;;;;;;;;;;;;;;;;;;2205847;67;1148;-69
2022/04/08 06:20:38;;;;;;;;;;;;;;;;;;2204627;59;1828;-69
2022/04/08 06:23:11;;;;;;;;;;;;;;;;;;2210847;59;1600;-69
2022/04/08 06:25:44;;;;;;;;;;;;;;;;;;2208958;66;1213;-70
2022/04/08 06:28:18;;;;;;;;;;;;;;;;;;2205704;59;1226;-69
2022/04/08 06:30:51;;;;;;;;;;;;;;;;;;2205756;59;1282;-70
2022/04/08 06:33:26;;;;;;;;;;;;;;;;;;2204592;59;1269;-69
2022/04/08 06:36:02;;;;;;;;;;;;;;;;;;2206460;60;2000;-69
2022/04/08 06:38:35;;;;;;;;;;;;;;;;;;2205113;67;1210;-70
2022/04/08 06:41:08;;;;;;;;;;;;;;;;;;2202932;58;1709;-70
2022/04/08 06:43:41;;;;;;;;;;;;;;;;;;2201836;54;3692;-73
2022/04/08 06:46:14;;;;;;;;;;;;;;;;;;2199275;59;1262;-73
2022/04/08 06:48:50;;;;;;;;;;;;;;;;;;2198106;59;1163;-72
2022/04/08 06:51:24;;;;;;;;;;;;;;;;;;2209750;59;2187;-72
2022/04/08 06:53:57;;;;;;;;;;;;;;;;;;2195177;59;1953;-72
2022/04/08 06:56:30;;;;;;;;;;;;;;;;;;2195134;67;1181;-72
2022/04/08 06:59:03;;;;;;;;;;;;;;;;;;2199122;59;1222;-72
2022/04/08 07:01:37;;;;;;;;;;;;;;;;;;2194970;59;1506;-73
2022/04/08 07:04:12;;;;;;;;;;;;;;;;;;2194805;59;1622;-72
2022/04/08 07:06:46;;;;;;;;;;;;;;;;;;2192623;59;2259;-72
2022/04/08 07:09:19;;;;;;;;;;;;;;;;;;2199278;59;1799;-72
2022/04/08 07:11:55;;;;;;;;;;;;;;;;;;2195857;67;1176;-73
2022/04/08 07:14:28;;;;;;;;;;;;;;;;;;2193040;59;1944;-72
2022/04/08 07:17:01;;;;;;;;;;;;;;;;;;2197006;59;2775;-73
2022/04/08 07:19:37;;;;;;;;;;;;;;;;;;2194049;59;2581;-72
2022/04/08 07:22:10;;;;;;;;;;;;;;;;;;2198785;67;1100;-72
2022/04/08 07:24:43;;;;;;;;;;;;;;;;;;2195411;59;1845;-72
2022/04/08 07:27:16;;;;;;;;;;;;;;;;;;2208625;67;1303;-72
2022/04/08 07:29:50;;;;;;;;;;;;;;;;;;2196572;59;1378;-72
2022/04/08 07:32:23;;;;;;;;;;;;;;;;;;2196469;59;1287;-72
2022/04/08 07:34:59;;;;;;;;;;;;;;;;;;2196234;59;1937;-72
2022/04/08 07:37:33;;;;;;;;;;;;;;;;;;2193885;59;2167;-72
2022/04/08 07:40:07;;;;;;;;;;;;;;;;;;2195300;67;1088;-72
2022/04/08 07:42:41;;;;;;;;;;;;;;;;;;2193050;59;1677;-72
2022/04/08 07:45:14;;;;;;;;;;;;;;;;;;2194392;67;1097;-73
2022/04/08 07:47:47;;;;;;;;;;;;;;;;;;2196889;59;1257;-72
2022/04/08 07:50:23;;;;;;;;;;;;;;;;;;2195141;59;1271;-72
2022/04/08 07:52:57;;;;;;;;;;;;;;;;;;2206827;59;1315;-72
2022/04/08 07:55:30;;;;;;;;;;;;;;;;;;2195030;59;2003;-72
2022/04/08 07:58:04;;;;;;;;;;;;;;;;;;2195650;67;1097;-72
2022/04/08 08:00:37;;;;;;;;;;;;;;;;;;2194171;67;1191;-72
2022/04/08 08:03:11;;;;;;;;;;;;;;;;;;2195654;59;1694;-72
2022/04/08 08:05:47;;;;;;;;;;;;;;;;;;2193333;59;1523;-73
2022/04/08 08:08:21;;;;;;;;;;;;;;;;;;2193725;67;1874;-72
2022/04/08 08:10:55;;;;;;;;;;;;;;;;;;2194856;67;1098;-73
2022/04/08 08:13:29;;;;;;;;;;;;;;;;;;2207150;59;1420;-73
2022/04/08 08:16:02;;;;;;;;;;;;;;;;;;2194195;67;1942;-72
2022/04/08 08:18:35;;;;;;;;;;;;;;;;;;2193938;59;2246;-72
2022/04/08 08:21:12;;;;;;;;;;;;;;;;;;2194354;59;2667;-73
2022/04/08 08:23:46;;;;;;;;;;;;;;;;;;2193535;59;2335;-73
2022/04/08 08:26:19;;;;;;;;;;;;;;;;;;2195928;67;1105;-72
2022/04/08 08:28:53;;;;;;;;;;;;;;;;;;2196906;67;1446;-72
2022/04/08 08:31:26;;;;;;;;;;;;;;;;;;2194526;67;1165;-72
2022/04/08 08:33:59;;;;;;;;;;;;;;;;;;2197699;59;1281;-72
2022/04/08 08:36:35;;;;;;;;;;;;;;;;;;2193428;59;2051;-72
2022/04/08 08:39:08;;;;;;;;;;;;;;;;;;2199320;67;1244;-72
2022/04/08 08:41:42;;;;;;;;;;;;;;;;;;2194717;67;1141;-72
2022/04/08 08:44:16;;;;;;;;;;;;;;;;;;2193820;59;1927;-72
2022/04/08 08:46:50;;;;;;;;;;;;;;;;;;2197683;67;1416;-73
2022/04/08 08:49:25;;;;;;;;;;;;;;;;;;2195433;59;1303;-73
2022/04/08 08:52:02;;;;;;;;;;;;;;;;;;2194219;59;1278;-73
2022/04/08 08:54:35;;;;;;;;;;;;;;;;;;2195186;60;1928;-73
2022/04/08 08:57:09;;;;;;;;;;;;;;;;;;2196171;67;1185;-73
2022/04/08 08:59:44;;;;;;;;;;;;;;;;;;2193936;59;2193;-73
2022/04/08 09:02:19;;;;;;;;;;;;;;;;;;2195608;67;1095;-72
2022/04/08 09:04:53;;;;;;;;;;;;;;;;;;2206753;59;2230;-73
2022/04/08 09:07:29;;;;;;;;;;;;;;;;;;2209087;59;1852;-72
2022/04/08 09:10:02;;;;;;;;;;;;;;;;;;2194668;59;1845;-72
2022/04/08 09:12:35;;;;;;;;;;;;;;;;;;2196205;59;2024;-72
2022/04/08 09:15:09;;;;;;;;;;;;;;;;;;2195846;67;1984;-73
2022/04/08 09:17:43;;;;;;;;;;;;;;;;;;2196079;59;1277;-73
2022/04/08 09:20:16;;;;;;;;;;;;;;;;;;2195962;59;2611;-73
2022/04/08 09:22:58;;;;;;;;;;;;;;;;;;2194317;59;2824;-73
2022/04/08 09:25:31;;;;;;;;;;;;;;;;;;2197766;59;1620;-73
2022/04/08 09:28:08;;;;;;;;;;;;;;;;;;2195887;59;1147;-73
2022/04/08 09:30:41;;;;;;;;;;;;;;;;;;2197906;59;1387;-73
2022/04/08 09:33:16;;;;;;;;;;;;;;;;;;2196225;59;1249;-73
2022/04/08 09:35:49;;;;;;;;;;;;;;;;;;2198141;59;1932;-73
2022/04/08 09:38:28;;;;;;;;;;;;;;;;;;2195856;67;1787;-73
2022/04/08 09:41:02;;;;;;;;;;;;;;;;;;2206431;59;1208;-73
2022/04/08 09:43:36;;;;;;;;;;;;;;;;;;2194321;59;1719;-74
2022/04/08 09:46:16;;;;;;;;;;;;;;;;;;2194862;67;1352;-73
2022/04/08 09:48:50;;;;;;;;;;;;;;;;;;2194586;59;1733;-73
2022/04/08 09:51:24;;;;;;;;;;;;;;;;;;2194096;59;1332;-73
2022/04/08 09:54:00;;;;;;;;;;;;;;;;;;2205207;59;1752;-73
2022/04/08 09:56:34;;;;;;;;;;;;;;;;;;2193728;60;1932;-73
2022/04/08 09:59:15;;;;;;;;;;;;;;;;;;2195894;67;1274;-73
2022/04/08 10:01:48;;;;;;;;;;;;;;;;;;2195967;59;1196;-73
2022/04/08 10:04:22;;;;;;;;;;;;;;;;;;2196061;59;1590;-73
2022/04/08 10:06:55;;;;;;;;;;;;;;;;;;2194596;59;1207;-73
2022/04/08 10:09:34;;;;;;;;;;;;;;;;;;2194857;59;1380;-73
2022/04/08 10:12:12;;;;;;;;;;;;;;;;;;2193756;59;1767;-73
2022/04/08 10:14:50;;;;;;;;;;;;;;;;;;2199876;59;1649;-73
2022/04/08 10:17:23;;;;;;;;;;;;;;;;;;2196216;59;2135;-73
2022/04/08 10:19:56;;;;;;;;;;;;;;;;;;2197987;59;1854;-73
2022/04/08 10:22:29;;;;;;;;;;;;;;;;;;2202763;59;1716;-72
2022/04/08 10:25:15;;;;;;;;;;;;;;;;;;2195140;59;2115;-73
2022/04/08 10:27:48;;;;;;;;;;;;;;;;;;2194591;67;1266;-73
2022/04/08 10:30:23;;;;;;;;;;;;;;;;;;2196258;59;1376;-73
2022/04/08 10:33:01;;;;;;;;;;;;;;;;;;2198757;59;1745;-73
2022/04/08 10:35:34;;;;;;;;;;;;;;;;;;2195289;59;1941;-73
2022/04/08 10:38:08;;;;;;;;;;;;;;;;;;2198514;67;1089;-73
2022/04/08 10:40:54;;;;;;;;;;;;;;;;;;2205726;67;1332;-73
2022/04/08 10:43:28;;;;;;;;;;;;;;;;;;2192515;59;1617;-73
2022/04/08 10:46:01;;;;;;;;;;;;;;;;;;2193357;67;1184;-73
2022/04/08 10:48:35;;;;;;;;;;;;;;;;;;2197513;59;1732;-73
2022/04/08 10:51:09;;;;;;;;;;;;;;;;;;2195095;59;1195;-73
2022/04/08 10:53:42;;;;;;;;;;;;;;;;;;2193025;59;2448;-73
2022/04/08 10:56:18;;;;;;;;;;;;;;;;;;2194804;67;1936;-73
2022/04/08 10:58:51;;;;;;;;;;;;;;;;;;2197717;59;1167;-73
2022/04/08 11:01:27;;;;;;;;;;;;;;;;;;2200331;59;2029;-73
2022/04/08 11:04:01;;;;;;;;;;;;;;;;;;2196161;59;1692;-74
2022/04/08 11:06:35;;;;;;;;;;;;;;;;;;2195978;59;1706;-73
2022/04/08 11:09:09;;;;;;;;;;;;;;;;;;2196857;67;1280;-73
2022/04/08 11:11:52;;;;;;;;;;;;;;;;;;2196479;67;1295;-73
2022/04/08 11:14:25;;;;;;;;;;;;;;;;;;2195984;59;1696;-73
2022/04/08 11:16:58;;;;;;;;;;;;;;;;;;2195529;59;1944;-73
2022/04/08 11:19:32;;;;;;;;;;;;;;;;;;2194742;59;1798;-73
2022/04/08 11:22:13;;;;;;;;;;;;;;;;;;2195964;59;1412;-73
2022/04/08 11:24:46;;;;;;;;;;;;;;;;;;2194778;59;1700;-73
2022/04/08 11:27:22;;;;;;;;;;;;;;;;;;2197696;59;1636;-73
2022/04/08 11:29:55;;;;;;;;;;;;;;;;;;2195999;67;1231;-73
2022/04/08 11:32:32;;;;;;;;;;;;;;;;;;2198178;59;1209;-73
2022/04/08 11:35:12;;;;;;;;;;;;;;;;;;2196978;59;1205;-73
2022/04/08 11:37:45;;;;;;;;;;;;;;;;;;2194156;59;1944;-73
2022/04/08 11:40:20;;;;;;;;;;;;;;;;;;2191422;59;1638;-73
2022/04/08 11:42:59;;;;;;;;;;;;;;;;;;2193565;59;1724;-74
2022/04/08 11:45:32;;;;;;;;;;;;;;;;;;2195300;59;1195;-73
2022/04/08 11:48:08;;;;;;;;;;;;;;;;;;2196410;59;1699;-73
2022/04/08 11:50:41;;;;;;;;;;;;;;;;;;2194272;59;1181;-73
2022/04/08 11:53:17;;;;;;;;;;;;;;;;;;2193512;67;2545;-73
2022/04/08 11:55:54;;;;;;;;;;;;;;;;;;2193721;59;2261;-73
2022/04/08 11:58:30;;;;;;;;;;;;;;;;;;2195690;67;1345;-74
2022/04/08 12:01:05;;;;;;;;;;;;;;;;;;2195880;59;1269;-74
2022/04/08 12:03:41;;;;;;;;;;;;;;;;;;2196017;59;1808;-73
2022/04/08 12:06:14;;;;;;;;;;;;;;;;;;2194733;67;1117;-74
2022/04/08 12:08:48;;;;;;;;;;;;;;;;;;2195733;59;1747;-74
2022/04/08 12:11:23;;;;;;;;;;;;;;;;;;2195021;67;1252;-73
2022/04/08 12:13:59;;;;;;;;;;;;;;;;;;2197262;59;1970;-73
2022/04/08 12:16:33;;;;;;;;;;;;;;;;;;2197551;59;1988;-75
2022/04/08 12:19:06;;;;;;;;;;;;;;;;;;2198069;59;1858;-75
2022/04/08 12:21:40;;;;;;;;;;;;;;;;;;2195911;59;1778;-74
2022/04/08 12:24:13;;;;;;;;;;;;;;;;;;2195497;59;1612;-74
2022/04/08 12:26:47;;;;;;;;;;;;;;;;;;2194412;59;1452;-75
2022/04/08 12:29:23;;;;;;;;;;;;;;;;;;2197742;67;1310;-74
2022/04/08 12:31:57;;;;;;;;;;;;;;;;;;2197245;59;1320;-74
2022/04/08 12:34:30;;;;;;;;;;;;;;;;;;2197014;59;1283;-74
2022/04/08 12:37:03;;;;;;;;;;;;;;;;;;2196076;67;1925;-74
2022/04/08 12:39:37;;;;;;;;;;;;;;;;;;2196317;59;1631;-74
2022/04/08 12:42:10;;;;;;;;;;;;;;;;;;2197599;59;1644;-74
2022/04/08 12:44:46;;;;;;;;;;;;;;;;;;2195723;54;2013;-70
2022/04/08 12:47:19;;;;;;;;;;;;;;;;;;2197756;59;1609;-70
2022/04/08 12:49:52;;;;;;;;;;;;;;;;;;2199220;67;1241;-71
2022/04/08 12:52:25;;;;;;;;;;;;;;;;;;2197825;59;1196;-70
2022/04/08 12:54:58;;;;;;;;;;;;;;;;;;2208962;59;2726;-69
2022/04/08 12:57:32;;;;;;;;;;;;;;;;;;2198826;59;2587;-71
2022/04/08 13:00:11;;;;;;;;;;;;;;;;;;2200166;67;1310;-71
2022/04/08 13:02:45;;;;;;;;;;;;;;;;;;2200440;59;1331;-69
2022/04/08 13:05:18;;;;;;;;;;;;;;;;;;2211857;59;2092;-70
2022/04/08 13:07:52;;;;;;;;;;;;;;;;;;2200083;59;1322;-71
2022/04/08 13:10:26;;;;;;;;;;;;;;;;;;2200363;67;1241;-70
2022/04/08 13:12:59;;;;;;;;;;;;;;;;;;2212020;59;1824;-72
2022/04/08 13:15:34;;;;;;;;;;;;;;;;;;2200318;67;1071;-70
2022/04/08 13:18:08;;;;;;;;;;;;;;;;;;2199713;61;1992;-71
2022/04/08 13:20:42;;;;;;;;;;;;;;;;;;2200142;59;2159;-70
2022/04/08 13:23:15;;;;;;;;;;;;;;;;;;2199526;59;1718;-71
2022/04/08 13:25:48;;;;;;;;;;;;;;;;;;2200473;67;1100;-72
2022/04/08 13:28:21;;;;;;;;;;;;;;;;;;2200105;67;1113;-71
2022/04/08 13:30:57;;;;;;;;;;;;;;;;;;2200422;67;1314;-70
2022/04/08 13:33:30;;;;;;;;;;;;;;;;;;2199707;67;1254;-71
2022/04/08 13:36:04;;;;;;;;;;;;;;;;;;2199503;59;1933;-71
2022/04/08 13:38:37;;;;;;;;;;;;;;;;;;2211307;59;1401;-70
2022/04/08 13:41:10;;;;;;;;;;;;;;;;;;2199605;59;1714;-70
2022/04/08 13:43:43;;;;;;;;;;;;;;;;;;2199101;59;1864;-71
2022/04/08 13:46:19;;;;;;;;;;;;;;;;;;2199937;60;1111;-70
2022/04/08 13:48:54;;;;;;;;;;;;;;;;;;2199034;59;1648;-71
2022/04/08 13:51:27;;;;;;;;;;;;;;;;;;2200014;67;1078;-70
2022/04/08 13:54:00;;;;;;;;;;;;;;;;;;2198607;59;1786;-70
2022/04/08 13:56:33;;;;;;;;;;;;;;;;;;2198578;59;2545;-71
2022/04/08 13:59:06;;;;;;;;;;;;;;;;;;2198717;59;1154;-71
2022/04/08 14:01:42;;;;;;;;;;;;;;;;;;2199969;59;1263;-70
2022/04/08 14:04:15;;;;;;;;;;;;;;;;;;2200244;59;1735;-71
2022/04/08 14:06:48;;;;;;;;;;;;;;;;;;2200324;67;1282;-71
2022/04/08 14:09:21;;;;;;;;;;;;;;;;;;2200589;67;1247;-71
2022/04/08 14:11:54;;;;;;;;;;;;;;;;;;2199894;67;1190;-71
2022/04/08 14:14:28;;;;;;;;;;;;;;;;;;2200099;59;1471;-71
2022/04/08 14:17:03;;;;;;;;;;;;;;;;;;2199972;67;1932;-71
2022/04/08 14:19:36;;;;;;;;;;;;;;;;;;2199541;59;1941;-71
2022/04/08 14:22:10;;;;;;;;;;;;;;;;;;2199862;59;1171;-70
2022/04/08 14:24:43;;;;;;;;;;;;;;;;;;2199180;59;2032;-70
2022/04/08 14:27:16;;;;;;;;;;;;;;;;;;2200052;67;1088;-71
2022/04/08 14:29:49;;;;;;;;;;;;;;;;;;2207764;67;1406;-71
2022/04/08 14:32:25;;;;;;;;;;;;;;;;;;2199696;59;1955;-71
2022/04/08 14:34:58;;;;;;;;;;;;;;;;;;2199938;59;1264;-70
2022/04/08 14:37:32;;;;;;;;;;;;;;;;;;2199895;59;1939;-71
2022/04/08 14:40:05;;;;;;;;;;;;;;;;;;2200155;67;1112;-71
2022/04/08 14:42:39;;;;;;;;;;;;;;;;;;2199987;67;1197;-70
2022/04/08 14:45:12;;;;;;;;;;;;;;;;;;2199549;59;2029;-70
2022/04/08 14:47:48;;;;;;;;;;;;;;;;;;2200034;59;1495;-71
2022/04/08 14:50:21;;;;;;;;;;;;;;;;;;2199180;59;1771;-70
2022/04/08 14:52:55;;;;;;;;;;;;;;;;;;2199500;59;1263;-70
2022/04/08 14:55:28;;;;;;;;;;;;;;;;;;2199782;59;1272;-70
2022/04/08 14:58:02;;;;;;;;;;;;;;;;;;2197156;59;2839;-70
2022/04/08 15:00:35;;;;;;;;;;;;;;;;;;2199199;67;1307;-70
2022/04/08 15:03:11;;;;;;;;;;;;;;;;;;2199191;59;1850;-71
2022/04/08 15:05:44;;;;;;;;;;;;;;;;;;2199967;67;1242;-71
2022/04/08 15:08:18;;;;;;;;;;;;;;;;;;2199719;59;1237;-71
2022/04/08 15:10:51;;;;;;;;;;;;;;;;;;2199712;67;1224;-70
2022/04/08 15:13:24;;;;;;;;;;;;;;;;;;2199312;59;1272;-71
2022/04/08 15:15:57;;;;;;;;;;;;;;;;;;2199690;59;1268;-71
2022/04/08 15:18:33;;;;;;;;;;;;;;;;;;2199389;59;2008;-70
2022/04/08 15:21:06;;;;;;;;;;;;;;;;;;2199053;59;2660;-70
2022/04/08 15:23:39;;;;;;;;;;;;;;;;;;2199698;59;1739;-70
2022/04/08 15:26:12;;;;;;;;;;;;;;;;;;2200004;67;1286;-70
2022/04/08 15:28:46;;;;;;;;;;;;;;;;;;2200168;59;1326;-69
2022/04/08 15:31:19;;;;;;;;;;;;;;;;;;2199548;67;1233;-70
2022/04/08 15:33:57;;;;;;;;;;;;;;;;;;2199190;59;1342;-69
2022/04/08 15:36:30;;;;;;;;;;;;;;;;;;2199327;59;1585;-69
2022/04/08 15:39:03;;;;;;;;;;;;;;;;;;2199318;67;1984;-70
2022/04/08 15:41:37;;;;;;;;;;;;;;;;;;2199940;59;1180;-70
2022/04/08 15:44:11;;;;;;;;;;;;;;;;;;2198847;59;1711;-69
2022/04/08 15:46:44;;;;;;;;;;;;;;;;;;2199783;67;1221;-70
2022/04/08 15:49:20;;;;;;;;;;;;;;;;;;2199745;59;1610;-70
2022/04/08 15:51:53;;;;;;;;;;;;;;;;;;2199322;59;1485;-71
2022/04/08 15:54:26;;;;;;;;;;;;;;;;;;2199639;59;2829;-70
2022/04/08 15:56:59;;;;;;;;;;;;;;;;;;2199134;59;2548;-71
2022/04/08 15:59:32;;;;;;;;;;;;;;;;;;2198376;59;2602;-70
2022/04/08 16:02:06;;;;;;;;;;;;;;;;;;2199351;67;1126;-71
2022/04/08 16:04:41;;;;;;;;;;;;;;;;;;2199331;59;1664;-70
2022/04/08 16:07:15;;;;;;;;;;;;;;;;;;2200393;59;1260;-71
2022/04/08 16:09:48;;;;;;;;;;;;;;;;;;2211514;67;1397;-70
2022/04/08 16:12:21;;;;;;;;;;;;;;;;;;2210697;59;1676;-70
2022/04/08 16:14:54;;;;;;;;;;;;;;;;;;2198926;59;1304;-70
2022/04/08 16:17:27;;;;;;;;;;;;;;;;;;2200549;67;1996;-70
2022/04/08 16:20:03;;;;;;;;;;;;;;;;;;2199287;59;1961;-70
2022/04/08 16:22:36;;;;;;;;;;;;;;;;;;2199845;59;1784;-70
2022/04/08 16:25:10;;;;;;;;;;;;;;;;;;2199647;59;2060;-70
2022/04/08 16:27:43;;;;;;;;;;;;;;;;;;2200363;59;2045;-70
2022/04/08 16:30:17;;;;;;;;;;;;;;;;;;2201062;59;1115;-70
2022/04/08 16:32:50;;;;;;;;;;;;;;;;;;2200329;59;1312;-70
2022/04/08 16:35:26;;;;;;;;;;;;;;;;;;2200567;59;1200;-70
2022/04/08 16:37:59;;;;;;;;;;;;;;;;;;2200167;67;1933;-70
2022/04/08 16:40:32;;;;;;;;;;;;;;;;;;2199624;59;1954;-70
2022/04/08 16:43:05;;;;;;;;;;;;;;;;;;2199846;59;1811;-70
2022/04/08 16:45:40;;;;;;;;;;;;;;;;;;2199927;59;1260;-70
2022/04/08 16:48:13;;;;;;;;;;;;;;;;;;2200424;59;1294;-70
2022/04/08 16:50:50;;;;;;;;;;;;;;;;;;2199860;59;1474;-70
2022/04/08 16:53:23;;;;;;;;;;;;;;;;;;2200006;67;1268;-70
2022/04/08 16:55:56;;;;;;;;;;;;;;;;;;2200338;59;1133;-71
2022/04/08 16:58:29;;;;;;;;;;;;;;;;;;2199232;59;2686;-70
2022/04/08 17:01:03;;;;;;;;;;;;;;;;;;2198589;59;2299;-71
2022/04/08 17:03:36;;;;;;;;;;;;;;;;;;2211352;59;1994;-70
2022/04/08 17:06:12;;;;;;;;;;;;;;;;;;2200044;67;1199;-70
2022/04/08 17:08:46;;;;;;;;;;;;;;;;;;2200636;67;1280;-70
2022/04/08 17:11:19;;;;;;;;;;;;;;;;;;2200110;59;1952;-70
2022/04/08 17:13:52;;;;;;;;;;;;;;;;;;2199738;59;1347;-70
2022/04/08 17:16:25;;;;;;;;;;;;;;;;;;2200286;67;1312;-70
2022/04/08 17:18:59;;;;;;;;;;;;;;;;;;2200258;59;2007;-70
2022/04/08 17:21:35;;;;;;;;;;;;;;;;;;2200090;67;1236;-71
2022/04/08 17:24:08;;;;;;;;;;;;;;;;;;2199487;59;1921;-71
2022/04/08 17:26:42;;;;;;;;;;;;;;;;;;2211523;67;1789;-71
2022/04/08 17:29:15;;;;;;;;;;;;;;;;;;2200389;59;1236;-70
2022/04/08 17:31:48;;;;;;;;;;;;;;;;;;2199768;59;1127;-70
2022/04/08 17:34:21;;;;;;;;;;;;;;;;;;2199477;59;1300;-70
2022/04/08 17:36:57;;;;;;;;;;;;;;;;;;2198542;59;1696;-70
2022/04/08 17:39:30;;;;;;;;;;;;;;;;;;2198422;59;1933;-70
2022/04/08 17:42:04;;;;;;;;;;;;;;;;;;2198604;59;1740;-71
2022/04/08 17:44:38;;;;;;;;;;;;;;;;;;2198644;59;1658;-70
2022/04/08 17:47:15;;;;;;;;;;;;;;;;;;2199675;59;1295;-70
2022/04/08 17:49:48;;;;;;;;;;;;;;;;;;2199526;59;2185;-71
2022/04/08 17:52:24;;;;;;;;;;;;;;;;;;2199407;59;1237;-71